Time;durP1;ratioP1;P1;durP2;ratioP2;P2;SDS_P1;SDS_P2;PMS_P1;PMS_P2;Temp;Humidity;BMP_temperature;BMP_pressure;BME280_temperature;BME280_humidity;BME280_pressure;Samples;Min_cycle;Max_cycle;Signal;HPM_P1;HPM_P2
2021/04/06 00:02:15;;;;;;;11.65;7.40;;;;;;;4.35;100.00;97746.35;1748963;81;21207;-67
2021/04/06 00:04:52;;;;;;;12.23;7.70;;;;;;;4.32;100.00;97745.50;1734899;82;21381;-67
2021/04/06 00:07:24;;;;;;;11.35;7.72;;;;;;;4.27;100.00;97742.03;1740593;81;21027;-66
2021/04/06 00:10:01;;;;;;;11.50;7.40;;;;;;;4.25;100.00;97732.88;1715766;82;21063;-68
2021/04/06 00:12:32;;;;;;;18.42;7.95;;;;;;;4.25;100.00;97733.31;1722622;81;21570;-68
2021/04/06 00:15:02;;;;;;;11.48;8.18;;;;;;;4.26;100.00;97728.55;1781371;79;20969;-68
2021/04/06 00:17:32;;;;;;;10.88;8.00;;;;;;;4.26;100.00;97736.39;1780819;78;21202;-69
2021/04/06 00:20:07;;;;;;;16.45;8.18;;;;;;;4.24;100.00;97732.88;1743620;82;20978;-68
2021/04/06 00:22:37;;;;;;;12.40;7.83;;;;;;;4.20;100.00;97729.85;1744479;82;20927;-67
2021/04/06 00:25:15;;;;;;;11.12;7.35;;;;;;;4.18;100.00;97726.38;1744057;82;20927;-68
2021/04/06 00:27:47;;;;;;;11.57;7.35;;;;;;;4.16;100.00;97723.78;1745528;81;21091;-68
2021/04/06 00:30:19;;;;;;;12.23;8.17;;;;;;;4.16;100.00;97730.73;1785907;78;21400;-66
2021/04/06 00:33:06;;;;;;;11.18;7.90;;;;;;;4.12;100.00;97725.97;1749581;81;20933;-68
2021/04/06 00:35:37;;;;;;;9.90;7.25;;;;;;;4.10;100.00;97716.84;1760884;80;21081;-68
2021/04/06 00:38:14;;;;;;;11.80;7.50;;;;;;;4.12;100.00;97714.22;1764025;80;21045;-66
2021/04/06 00:40:48;;;;;;;10.08;7.92;;;;;;;4.11;100.00;97710.74;1745594;81;21057;-68
2021/04/06 00:43:19;;;;;;;11.00;7.83;;;;;;;4.10;100.00;97715.53;1782554;79;22352;-67
2021/04/06 00:45:51;;;;;;;11.08;7.75;;;;;;;4.13;100.00;97715.09;1749181;82;21118;-67
2021/04/06 00:48:23;;;;;;;9.98;7.53;;;;;;;4.13;100.00;97707.27;1740603;79;21061;-67
2021/04/06 00:51:10;;;;;;;11.05;7.97;;;;;;;4.13;100.00;97703.34;1713805;82;21494;-67
2021/04/06 00:54:00;;;;;;;11.08;7.90;;;;;;;4.13;100.00;97704.22;1743457;82;21294;-67
2021/04/06 00:56:33;;;;;;;12.47;7.62;;;;;;;4.11;100.00;97707.27;1806440;79;22183;-68
2021/04/06 00:59:09;;;;;;;11.05;7.55;;;;;;;4.06;100.00;97705.11;1807896;79;21543;-67
2021/04/06 01:01:55;;;;;;;10.53;7.20;;;;;;;4.00;100.00;97700.78;1743456;81;21464;-67
2021/04/06 01:04:29;;;;;;;10.18;7.05;;;;;;;3.96;100.00;97702.10;1750025;80;21077;-67
2021/04/06 01:07:12;;;;;;;11.70;7.62;;;;;;;3.94;100.00;97704.72;1757263;79;20899;-68
2021/04/06 01:09:54;;;;;;;10.03;7.28;;;;;;;3.90;100.00;97699.08;1723565;82;22251;-67
2021/04/06 01:12:27;;;;;;;9.35;7.30;;;;;;;3.88;100.00;97692.13;1757381;80;20946;-66
2021/04/06 01:14:57;;;;;;;11.20;8.28;;;;;;;3.88;100.00;97694.73;1812906;79;21085;-66
2021/04/06 01:17:30;;;;;;;10.60;7.53;;;;;;;3.88;100.00;97696.05;1812960;78;20939;-67
2021/04/06 01:20:13;;;;;;;11.35;7.97;;;;;;;3.87;100.00;97692.56;1813363;79;21162;-67
2021/04/06 01:22:44;;;;;;;10.55;8.00;;;;;;;3.85;100.00;97684.31;1726952;81;21206;-67
2021/04/06 01:25:20;;;;;;;11.00;7.33;;;;;;;3.79;100.00;97683.89;1803374;79;21001;-67
2021/04/06 01:27:50;;;;;;;10.93;7.97;;;;;;;3.74;100.00;97688.23;1812027;78;21002;-67
2021/04/06 01:30:22;;;;;;;10.10;7.45;;;;;;;3.70;100.00;97680.84;1705060;82;21002;-66
2021/04/06 01:32:53;;;;;;;11.80;7.03;;;;;;;3.65;100.00;97685.64;1760685;80;21046;-67
2021/04/06 01:35:23;;;;;;;11.57;7.22;;;;;;;3.63;100.00;97691.30;1687650;82;22213;-67
2021/04/06 01:37:58;;;;;;;9.55;7.28;;;;;;;3.59;100.00;97691.73;1714666;82;21093;-67
2021/04/06 01:40:29;;;;;;;11.78;7.20;;;;;;;3.57;100.00;97687.40;1714628;82;20916;-67
2021/04/06 01:43:00;;;;;;;9.75;6.90;;;;;;;3.56;100.00;97685.23;1729273;81;20948;-67
2021/04/06 01:45:33;;;;;;;11.22;7.70;;;;;;;3.59;100.00;97685.66;1771344;80;21584;-66
2021/04/06 01:48:06;;;;;;;9.85;7.67;;;;;;;3.58;100.00;97693.91;1770808;80;22401;-67
2021/04/06 01:50:37;;;;;;;12.23;7.07;;;;;;;3.59;100.00;97692.17;1762921;80;20935;-67
2021/04/06 01:53:08;;;;;;;11.68;8.05;;;;;;;3.56;100.00;97695.66;1708650;82;20993;-66
2021/04/06 01:55:40;;;;;;;9.95;7.33;;;;;;;3.51;100.00;97692.19;1734419;81;21489;-67
2021/04/06 01:58:18;;;;;;;10.35;7.72;;;;;;;3.50;100.00;97692.19;1730210;82;21473;-67
2021/04/06 02:03:34;;;;;;;11.15;7.50;;;;;;;3.41;100.00;97688.73;1740418;82;21066;-67
2021/04/06 02:06:06;;;;;;;12.95;7.10;;;;;;;3.38;100.00;97683.52;1711626;82;20992;-67
2021/04/06 02:08:38;;;;;;;12.07;7.87;;;;;;;3.37;100.00;97679.61;1762086;80;20916;-67
2021/04/06 02:11:09;;;;;;;10.78;7.72;;;;;;;3.35;100.00;97683.96;1729776;82;21059;-67
2021/04/06 02:13:40;;;;;;;10.28;7.58;;;;;;;3.35;100.00;97684.83;1714682;82;21385;-66
2021/04/06 02:16:10;;;;;;;9.70;7.20;;;;;;;3.38;100.00;97687.86;1762531;80;21318;-66
2021/04/06 02:18:42;;;;;;;9.35;7.40;;;;;;;3.39;100.00;97686.99;1769448;80;21586;-67
2021/04/06 02:21:13;;;;;;;10.58;6.78;;;;;;;3.37;100.00;97685.69;1769899;80;20987;-69
2021/04/06 02:23:47;;;;;;;11.18;7.90;;;;;;;3.36;100.00;97683.95;1766885;80;20924;-68
2021/04/06 02:26:18;;;;;;;10.13;7.30;;;;;;;3.36;100.00;97689.61;1713987;81;21437;-69
2021/04/06 02:28:52;;;;;;;10.25;7.90;;;;;;;3.33;100.00;97687.88;1738615;81;20937;-69
2021/04/06 02:31:23;;;;;;;10.45;7.60;;;;;;;3.30;100.00;97677.85;1739149;81;21534;-68
2021/04/06 02:33:53;;;;;;;11.40;7.00;;;;;;;3.27;100.00;97678.72;1757460;81;21149;-68
2021/04/06 02:36:23;;;;;;;10.68;6.85;;;;;;;3.27;100.00;97688.28;1767294;80;20975;-67
2021/04/06 02:38:54;;;;;;;10.40;7.75;;;;;;;3.25;100.00;97679.16;1698966;81;21224;-68
2021/04/06 02:41:24;;;;;;;9.08;7.08;;;;;;;3.28;100.00;97679.59;1761071;81;21125;-66
2021/04/06 02:43:55;;;;;;;9.00;6.47;;;;;;;3.28;100.00;97671.34;1761259;80;21174;-67
2021/04/06 02:46:27;;;;;;;12.68;7.80;;;;;;;3.30;100.00;97664.82;1762853;78;21584;-66
2021/04/06 02:48:58;;;;;;;11.22;7.78;;;;;;;3.32;100.00;97670.50;1758260;80;21010;-66
2021/04/06 02:51:33;;;;;;;10.38;7.08;;;;;;;3.37;100.00;97671.80;1760338;80;21452;-67
2021/04/06 02:54:05;;;;;;;10.45;7.15;;;;;;;3.40;100.00;97660.06;1753730;80;21089;-66
2021/04/06 02:56:37;;;;;;;13.25;7.47;;;;;;;3.42;100.00;97661.79;1703677;83;21135;-68
2021/04/06 02:59:20;;;;;;;9.88;7.30;;;;;;;3.46;100.00;97660.05;1757943;81;20931;-71
2021/04/06 03:01:54;;;;;;;12.35;7.55;;;;;;;3.48;100.00;97651.35;1739865;81;21555;-70
2021/04/06 03:04:28;;;;;;;10.80;7.70;;;;;;;3.51;100.00;97663.52;1725471;82;21400;-69
2021/04/06 03:07:04;;;;;;;9.78;7.92;;;;;;;3.54;100.00;97660.90;1769244;81;21049;-68
2021/04/06 03:09:36;;;;;;;9.70;7.12;;;;;;;3.50;100.00;97666.99;1748606;82;20998;-71
2021/04/06 03:12:13;;;;;;;9.85;7.53;;;;;;;3.48;100.00;97668.30;1778412;79;20921;-70
2021/04/06 03:14:45;;;;;;;10.30;7.08;;;;;;;3.45;100.00;97673.95;1792854;78;21026;-71
2021/04/06 03:17:16;;;;;;;10.35;7.70;;;;;;;3.41;100.00;97668.31;1730867;81;21383;-69
2021/04/06 03:19:57;;;;;;;8.63;6.37;;;;;;;3.39;100.00;97673.96;1791064;80;20904;-70
2021/04/06 03:22:29;;;;;;;8.20;6.35;;;;;;;3.37;100.00;97681.78;1790520;79;21697;-70
2021/04/06 03:25:00;;;;;;;9.45;6.17;;;;;;;3.38;100.00;97671.79;1746097;80;21030;-71
2021/04/06 03:27:32;;;;;;;9.03;6.33;;;;;;;3.40;100.00;97680.48;1731957;80;21591;-67
2021/04/06 03:30:03;;;;;;;9.03;6.33;;;;;;;3.45;100.00;97676.56;1752969;82;22132;-73
2021/04/06 03:32:35;;;;;;;10.43;6.90;;;;;;;3.50;100.00;97669.59;1750869;82;21081;-73
2021/04/06 03:35:08;;;;;;;10.28;6.67;;;;;;;3.52;100.00;97671.77;1714350;82;21048;-73
2021/04/06 03:37:40;;;;;;;11.68;7.15;;;;;;;3.53;100.00;97673.94;1782080;80;20937;-71
2021/04/06 03:40:12;;;;;;;12.07;7.35;;;;;;;3.57;100.00;97670.02;1727107;80;21569;-72
2021/04/06 03:42:43;;;;;;;9.85;7.28;;;;;;;3.60;100.00;97673.05;1713418;82;21227;-72
2021/04/06 03:45:16;;;;;;;8.88;6.83;;;;;;;3.60;100.00;97668.70;1758967;81;20962;-69
2021/04/06 03:47:58;;;;;;;10.32;7.40;;;;;;;3.58;100.00;97673.05;1744260;82;20935;-67
2021/04/06 03:50:42;;;;;;;11.68;7.08;;;;;;;3.57;100.00;97681.75;1728687;83;21500;-72
2021/04/06 03:53:15;;;;;;;10.00;7.10;;;;;;;3.54;100.00;97673.06;1713616;82;21195;-73
2021/04/06 03:56:07;;;;;;;9.28;7.30;;;;;;;3.52;100.00;97677.41;1730488;81;21209;-73
2021/04/06 03:59:01;;;;;;;14.07;8.18;;;;;;;3.50;100.00;97680.46;1712035;83;28139;-74
2021/04/06 04:01:43;;;;;;;12.28;7.70;;;;;;;3.50;100.00;97678.72;1692053;83;21059;-74
2021/04/06 04:04:20;;;;;;;11.30;8.13;;;;;;;3.52;100.00;97674.81;1737730;82;20931;-73
2021/04/06 04:06:56;;;;;;;10.85;7.85;;;;;;;3.54;100.00;97680.45;1745527;82;20975;-74
2021/04/06 04:09:31;;;;;;;12.78;7.87;;;;;;;3.57;100.00;97686.96;1716690;82;21336;-74
2021/04/06 04:12:05;;;;;;;13.50;7.92;;;;;;;3.58;100.00;97698.26;1715498;82;21121;-72
2021/04/06 04:14:35;;;;;;;12.53;7.65;;;;;;;3.61;100.00;97695.64;1784043;80;21639;-71
2021/04/06 04:17:07;;;;;;;12.40;8.05;;;;;;;3.64;100.00;97703.02;1691045;83;21072;-71
2021/04/06 04:19:37;;;;;;;11.10;7.55;;;;;;;3.69;100.00;97701.71;1724306;81;21590;-72
2021/04/06 04:22:09;;;;;;;10.63;8.03;;;;;;;3.69;100.00;97705.63;1778145;80;21560;-71
2021/04/06 04:24:39;;;;;;;13.72;7.90;;;;;;;3.68;100.00;97702.58;1717597;82;21139;-71
2021/04/06 04:27:09;;;;;;;13.22;8.60;;;;;;;3.62;100.00;97695.64;1774333;80;20931;-71
2021/04/06 04:29:41;;;;;;;13.05;8.38;;;;;;;3.54;100.00;97693.48;1704874;83;21077;-73
2021/04/06 04:32:14;;;;;;;12.98;8.58;;;;;;;3.45;100.00;97683.95;1750554;81;21088;-71
2021/04/06 04:34:45;;;;;;;17.60;9.58;;;;;;;3.41;100.00;97682.64;1725443;83;22347;-72
2021/04/06 04:37:17;;;;;;;11.85;8.90;;;;;;;3.32;100.00;97683.96;1725599;83;20973;-72
2021/04/06 04:39:48;;;;;;;16.15;8.65;;;;;;;3.32;100.00;97682.66;1717279;83;21053;-72
2021/04/06 04:42:20;;;;;;;14.58;9.25;;;;;;;3.36;100.00;97674.83;1750517;81;21061;-72
2021/04/06 04:44:51;;;;;;;11.53;8.15;;;;;;;3.44;100.00;97673.52;1754807;81;20934;-71
2021/04/06 04:47:22;;;;;;;16.45;9.18;;;;;;;3.53;100.00;97672.20;1754660;81;21442;-71
2021/04/06 04:49:52;;;;;;;14.75;8.63;;;;;;;3.61;100.00;97678.70;1767727;80;21555;-72
2021/04/06 04:52:22;;;;;;;16.40;9.15;;;;;;;3.67;100.00;97674.77;1733890;82;20991;-71
2021/04/06 04:54:54;;;;;;;16.73;9.48;;;;;;;3.73;100.00;97671.71;1708500;83;21140;-71
2021/04/06 04:57:24;;;;;;;11.83;9.33;;;;;;;3.73;100.00;97676.06;1751021;82;20975;-71
2021/04/06 04:59:55;;;;;;;15.38;10.35;;;;;;;3.76;100.00;97668.22;1698407;83;21175;-70
2021/04/06 05:02:26;;;;;;;17.55;10.20;;;;;;;3.84;100.00;97673.45;1761193;80;20989;-71
2021/04/06 05:04:57;;;;;;;15.25;10.13;;;;;;;3.92;100.00;97667.33;1741926;81;20966;-71
2021/04/06 05:07:28;;;;;;;14.38;10.08;;;;;;;4.02;100.00;97669.03;1770663;80;21045;-70
2021/04/06 05:09:58;;;;;;;15.80;10.82;;;;;;;4.09;100.00;97667.27;1775736;79;21041;-71
2021/04/06 05:12:29;;;;;;;17.27;10.38;;;;;;;4.22;100.00;97671.98;1760935;80;22335;-71
2021/04/06 05:15:01;;;;;;;14.20;9.95;;;;;;;4.31;100.00;97674.59;1772895;79;21433;-71
2021/04/06 05:17:34;;;;;;;16.48;11.25;;;;;;;4.40;100.00;97683.23;1761544;79;21191;-72
2021/04/06 05:20:07;;;;;;;15.60;10.95;;;;;;;4.50;100.00;97675.35;1763934;80;21139;-72
2021/04/06 05:22:37;;;;;;;14.83;10.13;;;;;;;4.57;100.00;97678.36;1724536;81;21081;-72
2021/04/06 05:25:09;;;;;;;15.00;10.00;;;;;;;4.62;100.00;97681.80;1755233;81;21323;-72
2021/04/06 05:27:44;;;;;;;15.18;10.20;;;;;;;4.65;100.00;97684.40;1754333;81;21069;-72
2021/04/06 05:30:18;;;;;;;15.80;10.65;;;;;;;4.61;100.00;97682.25;1742189;80;20930;-73
2021/04/06 05:32:57;;;;;;;16.25;10.45;;;;;;;4.60;100.00;97686.17;1713976;83;21217;-74
2021/04/06 05:35:27;;;;;;;14.47;10.28;;;;;;;4.65;100.00;97685.70;1705410;84;20935;-74
2021/04/06 05:37:59;;;;;;;13.55;9.93;;;;;;;4.69;100.00;97690.03;1708159;84;21105;-74
2021/04/06 05:40:30;;;;;;;15.63;10.65;;;;;;;4.72;100.00;97680.44;1705510;84;21485;-74
2021/04/06 05:43:02;;;;;;;15.85;10.78;;;;;;;4.78;100.00;97693.05;1708973;83;20963;-75
2021/04/06 05:45:33;;;;;;;12.95;10.05;;;;;;;4.84;100.00;97688.66;1705003;83;21189;-74
2021/04/06 05:48:04;;;;;;;17.37;9.43;;;;;;;4.90;100.00;97695.14;1703565;82;20998;-74
2021/04/06 05:50:34;;;;;;;13.43;9.28;;;;;;;5.00;100.00;97694.64;1706082;83;21381;-74
2021/04/06 05:53:05;;;;;;;11.70;9.25;;;;;;;5.11;100.00;97696.73;1716266;82;21555;-74
2021/04/06 05:55:35;;;;;;;13.13;9.48;;;;;;;5.22;100.00;97694.93;1657523;85;20957;-75
2021/04/06 05:58:06;;;;;;;13.22;8.70;;;;;;;5.33;100.00;97697.02;1739821;81;20945;-75
2021/04/06 06:00:36;;;;;;;13.10;9.20;;;;;;;5.43;100.00;97696.93;1751827;79;21058;-71
2021/04/06 06:03:08;;;;;;;12.13;8.95;;;;;;;5.55;100.00;97697.68;1773829;80;21505;-69
2021/04/06 06:05:40;;;;;;;14.55;9.10;;;;;;;5.66;100.00;97702.36;1775962;80;21628;-70
2021/04/06 06:08:14;;;;;;;13.23;9.30;;;;;;;5.79;100.00;97706.20;1741921;81;21139;-69
2021/04/06 06:10:42;;;;;;;;;;;;;;;5.88;100.00;97704.80;1704742;84;21126;-70
2021/04/06 06:13:24;;;;;;;15.98;9.18;;;;;;;5.93;100.00;97711.75;1702187;84;20248;-70
2021/04/06 06:16:10;;;;;;;13.03;9.13;;;;;;;6.00;100.00;97717.34;1718493;83;21383;-70
2021/04/06 06:19:10;;;;;;;11.70;8.20;;;;;;;6.02;100.00;97723.86;1750898;80;20941;-70
2021/04/06 06:21:49;;;;;;;12.43;9.20;;;;;;;6.06;100.00;97719.02;1709014;82;21037;-69
2021/04/06 06:24:26;;;;;;;10.48;8.80;;;;;;;6.09;100.00;97715.05;1690112;84;21178;-69
2021/04/06 06:26:57;;;;;;;12.07;9.03;;;;;;;6.14;100.00;97716.31;1690011;85;20954;-70
2021/04/06 06:29:33;;;;;;;11.53;8.75;;;;;;;6.18;100.00;97721.97;1687105;84;21228;-69
2021/04/06 06:32:03;;;;;;;11.20;7.80;;;;;;;6.21;100.00;97713.64;1689836;85;21607;-70
2021/04/06 06:34:36;;;;;;;8.93;7.42;;;;;;;6.28;100.00;97720.53;1689829;84;21002;-70
2021/04/06 06:37:20;;;;;;;8.80;7.30;;;;;;;6.33;100.00;97715.69;1689997;85;20934;-70
2021/04/06 06:40:01;;;;;;;10.20;7.65;;;;;;;6.36;100.00;97722.19;1689988;85;21188;-70
2021/04/06 06:42:36;;;;;;;10.23;7.85;;;;;;;6.42;100.00;97722.11;1689935;85;21378;-70
2021/04/06 06:45:11;;;;;;;9.80;8.18;;;;;;;6.52;100.00;97715.88;1700145;82;21144;-71
2021/04/06 06:47:47;;;;;;;13.98;8.03;;;;;;;6.61;100.00;97711.82;1689730;83;21545;-70
2021/04/06 06:50:20;;;;;;;12.45;7.80;;;;;;;6.71;100.00;97721.32;1684815;83;21128;-69
2021/04/06 06:52:53;;;;;;;10.18;7.28;;;;;;;6.83;100.00;97721.59;1715350;83;21170;-71
2021/04/06 06:55:25;;;;;;;10.70;7.72;;;;;;;6.94;100.00;97718.38;1701694;83;21153;-70
2021/04/06 06:58:02;;;;;;;;;;;;;;;7.05;100.00;97715.59;1719425;82;21073;-70
2021/04/06 07:00:31;;;;;;;11.35;7.67;;;;;;;7.16;100.00;97713.26;1733515;81;20246;-70
2021/04/06 07:03:01;;;;;;;8.00;7.20;;;;;;;7.31;100.00;97714.77;1731849;81;21169;-69
2021/04/06 07:05:31;;;;;;;10.40;7.97;;;;;;;7.47;100.00;97719.31;1695198;84;21604;-72
2021/04/06 07:08:06;;;;;;;12.28;8.03;;;;;;;7.60;100.00;97709.06;1687189;84;21287;-72
2021/04/06 07:10:40;;;;;;;18.60;8.13;;;;;;;7.74;100.00;97713.63;1699959;84;21509;-73
2021/04/06 07:13:21;;;;;;;10.40;7.15;;;;;;;7.93;100.00;97711.97;1697593;84;21061;-73
2021/04/06 07:15:52;;;;;;;7.67;6.55;;;;;;;8.11;100.00;97709.89;1697695;83;21603;-73
2021/04/06 07:18:25;;;;;;;7.53;6.72;;;;;;;8.28;100.00;97711.32;1697930;83;21179;-73
2021/04/06 07:21:01;;;;;;;9.83;7.33;;;;;;;8.44;100.00;97712.33;1698236;83;22292;-73
2021/04/06 07:23:39;;;;;;;9.93;7.37;;;;;;;8.62;100.00;97708.92;1698364;83;21072;-73
2021/04/06 07:26:16;;;;;;;10.18;7.12;;;;;;;8.78;100.00;97699.36;1698367;83;21049;-73
2021/04/06 07:28:50;;;;;;;8.83;7.80;;;;;;;8.96;100.00;97703.34;1698542;83;21061;-72
2021/04/06 07:31:21;;;;;;;9.10;7.60;;;;;;;9.06;100.00;97698.76;1698700;84;21151;-73
2021/04/06 07:34:08;;;;;;;8.48;6.87;;;;;;;9.24;100.00;97691.75;1838747;77;22772;-74
2021/04/06 07:36:40;;;;;;;10.38;7.08;;;;;;;9.34;100.00;97702.91;1811133;78;20903;-74
2021/04/06 07:39:13;;;;;;;11.35;7.28;;;;;;;9.49;100.00;97706.52;1810995;79;21027;-74
2021/04/06 07:41:44;;;;;;;7.80;6.53;;;;;;;9.69;100.00;97706.01;1785517;79;20923;-74
2021/04/06 07:44:15;;;;;;;8.58;7.33;;;;;;;9.90;100.00;97700.63;1754125;79;21014;-74
2021/04/06 07:46:48;;;;;;;8.90;7.75;;;;;;;10.12;100.00;97703.12;1808684;79;21585;-74
2021/04/06 07:49:30;;;;;;;8.93;6.85;;;;;;;10.28;100.00;97696.56;1740068;82;20932;-74
2021/04/06 07:52:05;;;;;;;9.35;6.65;;;;;;;10.44;100.00;97695.70;1740082;82;21439;-74
2021/04/06 07:54:44;;;;;;;9.68;6.72;;;;;;;10.59;100.00;97708.89;1724359;81;21045;-74
2021/04/06 07:57:14;;;;;;;13.22;6.30;;;;;;;10.71;100.00;97701.48;1733054;80;20998;-75
2021/04/06 07:59:49;;;;;;;7.60;6.42;;;;;;;10.88;100.00;97692.19;1729913;81;21212;-75
2021/04/06 08:02:23;;;;;;;6.62;5.78;;;;;;;11.04;100.00;97696.12;1728933;81;21116;-74
2021/04/06 08:04:55;;;;;;;9.43;6.78;;;;;;;11.15;100.00;97690.05;1720308;82;21368;-73
2021/04/06 08:07:29;;;;;;;8.90;6.72;;;;;;;11.25;100.00;97696.76;1712520;82;21152;-74
2021/04/06 08:10:19;;;;;;;11.57;8.03;;;;;;;11.34;100.00;97698.23;1712324;82;20958;-74
2021/04/06 08:12:51;;;;;;;10.78;7.85;;;;;;;11.44;98.33;97697.52;1705567;82;20958;-74
2021/04/06 08:15:34;;;;;;;10.18;8.80;;;;;;;11.51;97.03;97689.80;1675606;83;21086;-74
2021/04/06 08:18:05;;;;;;;10.70;8.38;;;;;;;11.62;97.42;97685.88;1699415;83;21215;-74
2021/04/06 08:20:38;;;;;;;8.53;7.65;;;;;;;11.73;96.35;97684.66;1699370;83;20948;-74
2021/04/06 08:23:18;;;;;;;10.50;7.53;;;;;;;11.88;94.28;97686.84;1713862;82;21037;-74
2021/04/06 08:25:50;;;;;;;11.28;7.83;;;;;;;12.05;95.05;97682.28;1667600;84;20976;-75
2021/04/06 08:28:32;;;;;;;10.48;7.20;;;;;;;12.17;94.79;97675.23;1670549;84;20984;-75
2021/04/06 08:31:23;;;;;;;9.78;7.05;;;;;;;12.30;94.88;97679.19;1670658;84;21355;-75
2021/04/06 08:33:53;;;;;;;10.70;7.50;;;;;;;12.44;93.47;97683.51;1670480;84;20928;-74
2021/04/06 08:36:25;;;;;;;8.68;6.30;;;;;;;12.60;90.82;97681.16;1643506;86;21526;-73
2021/04/06 08:38:58;;;;;;;32.80;6.70;;;;;;;12.68;88.02;97679.54;1643369;86;20948;-74
2021/04/06 08:41:34;;;;;;;7.95;6.42;;;;;;;12.73;86.51;97682.88;1643394;86;21482;-74
2021/04/06 08:44:06;;;;;;;8.18;6.47;;;;;;;12.84;86.70;97672.31;1643130;87;21226;-73
2021/04/06 08:46:42;;;;;;;8.20;7.00;;;;;;;12.95;85.13;97682.48;1617739;87;20956;-74
2021/04/06 08:49:25;;;;;;;8.20;6.70;;;;;;;12.99;82.34;97678.78;1642991;86;20992;-74
2021/04/06 08:52:00;;;;;;;10.18;6.80;;;;;;;13.11;81.03;97677.44;1643294;86;21058;-74
2021/04/06 08:54:33;;;;;;;59.95;7.45;;;;;;;13.23;78.61;97665.93;1643520;86;21102;-73
2021/04/06 08:57:43;;;;;;;8.38;6.12;;;;;;;13.40;79.74;97667.06;1643776;86;21403;-73
2021/04/06 09:00:15;;;;;;;8.20;7.08;;;;;;;13.53;77.85;97660.33;1618802;87;21086;-73
2021/04/06 09:02:48;;;;;;;8.43;6.85;;;;;;;13.52;77.94;97657.28;1644614;84;21086;-73
2021/04/06 09:05:18;;;;;;;7.97;5.70;;;;;;;13.55;80.33;97658.02;1670311;84;21044;-73
2021/04/06 09:07:49;;;;;;;6.42;5.83;;;;;;;13.61;79.87;97650.73;1670620;84;21106;-75
2021/04/06 09:10:20;;;;;;;9.28;5.87;;;;;;;13.62;76.69;97649.34;1670384;84;21027;-75
2021/04/06 09:12:54;;;;;;;6.05;5.45;;;;;;;13.48;72.97;97649.92;1670510;84;21015;-76
2021/04/06 09:15:23;;;;;;;10.32;5.95;;;;;;;13.36;70.51;97648.25;1646335;83;21148;-75
2021/04/06 09:17:52;;;;;;;6.70;4.92;;;;;;;13.34;73.55;97653.61;1698796;83;21465;-75
2021/04/06 09:20:22;;;;;;;6.45;5.42;;;;;;;13.37;72.96;97647.33;1685074;83;20973;-75
2021/04/06 09:22:51;;;;;;;5.97;5.30;;;;;;;13.45;72.38;97649.19;1630387;82;21425;-76
2021/04/06 09:25:24;;;;;;;6.67;5.67;;;;;;;13.50;73.68;97640.59;1710704;82;21142;-75
2021/04/06 09:27:58;;;;;;;8.35;4.95;;;;;;;13.57;73.04;97638.08;1704164;82;21096;-76
2021/04/06 09:30:37;;;;;;;7.00;5.65;;;;;;;13.63;72.17;97629.87;1675440;84;21593;-74
2021/04/06 09:33:14;;;;;;;6.37;5.75;;;;;;;13.67;67.98;97620.86;1727563;81;21076;-75
2021/04/06 09:35:52;;;;;;;6.33;5.67;;;;;;;13.79;67.46;97628.32;1727478;81;22524;-74
2021/04/06 09:38:23;;;;;;;6.03;5.45;;;;;;;13.85;67.61;97624.08;1727333;81;21521;-75
2021/04/06 09:40:53;;;;;;;8.93;5.50;;;;;;;13.87;67.05;97614.73;1727251;81;21570;-75
2021/04/06 09:43:25;;;;;;;5.58;4.95;;;;;;;13.96;65.34;97613.47;1690781;83;20940;-73
2021/04/06 09:45:54;;;;;;;6.92;5.58;;;;;;;14.08;64.02;97611.13;1678268;84;21552;-73
2021/04/06 09:48:25;;;;;;;4.97;4.20;;;;;;;14.25;64.94;97617.50;1692842;83;21598;-75
2021/04/06 09:51:04;;;;;;;6.87;5.28;;;;;;;14.39;61.39;97609.77;1675610;84;21109;-74
2021/04/06 09:53:37;;;;;;;6.08;4.83;;;;;;;14.44;58.92;97609.98;1692755;83;21048;-73
2021/04/06 09:56:08;;;;;;;5.58;4.97;;;;;;;14.49;57.38;97602.68;1675350;84;21123;-74
2021/04/06 09:58:38;;;;;;;6.10;4.87;;;;;;;14.66;58.62;97602.35;1727634;81;21512;-74
2021/04/06 10:01:23;;;;;;;5.40;4.60;;;;;;;14.80;59.09;97601.27;1727573;81;22111;-74
2021/04/06 10:04:00;;;;;;;5.30;4.47;;;;;;;14.96;60.01;97599.59;1727482;81;20969;-75
2021/04/06 10:06:42;;;;;;;5.70;4.85;;;;;;;15.09;57.28;97598.06;1727571;81;21030;-74
2021/04/06 10:09:24;;;;;;;6.55;4.33;;;;;;;15.14;55.88;97604.97;1727472;81;20978;-74
2021/04/06 10:11:53;;;;;;;5.67;5.00;;;;;;;15.12;55.64;97594.39;1727541;81;21199;-75
2021/04/06 10:14:23;;;;;;;6.08;4.92;;;;;;;15.20;55.62;97598.89;1734903;81;21514;-73
2021/04/06 10:17:07;;;;;;;6.45;5.08;;;;;;;15.18;54.66;97599.91;1757694;81;20957;-75
2021/04/06 10:19:40;;;;;;;22.17;6.10;;;;;;;15.01;53.59;97592.27;1757794;81;21025;-75
2021/04/06 10:22:13;;;;;;;5.92;5.17;;;;;;;14.96;53.50;97587.64;1757760;81;21002;-75
2021/04/06 10:24:47;;;;;;;7.78;5.08;;;;;;;15.03;53.26;97580.23;1757714;81;20950;-74
2021/04/06 10:27:26;;;;;;;6.28;4.35;;;;;;;15.17;52.49;97568.97;1757360;81;21427;-68
2021/04/06 10:30:00;;;;;;;10.88;5.35;;;;;;;15.42;51.95;97566.80;1755212;81;20996;-75
2021/04/06 10:32:33;;;;;;;10.20;6.15;;;;;;;15.60;49.43;97568.55;1717031;82;20976;-75
2021/04/06 10:35:10;;;;;;;6.00;5.40;;;;;;;15.59;49.40;97568.63;1703447;84;20914;-75
2021/04/06 10:37:52;;;;;;;8.20;5.10;;;;;;;15.50;50.18;97571.25;1703112;84;21010;-77
2021/04/06 10:40:35;;;;;;;7.50;5.67;;;;;;;15.52;49.91;97564.06;1703223;84;21367;-75
2021/04/06 10:43:19;;;;;;;6.90;5.45;;;;;;;15.71;49.29;97556.92;1749764;82;20933;-76
2021/04/06 10:46:01;;;;;;;5.80;4.75;;;;;;;15.81;49.53;97547.99;1751337;82;20921;-74
2021/04/06 10:48:38;;;;;;;4.50;4.03;;;;;;;15.86;48.52;97550.41;1726661;82;21480;-77
2021/04/06 10:51:14;;;;;;;5.22;4.40;;;;;;;15.81;48.72;97541.81;1754193;81;21188;-75
2021/04/06 10:53:47;;;;;;;9.30;4.62;;;;;;;15.81;48.87;97544.00;1721757;83;21474;-75
2021/04/06 10:56:19;;;;;;;5.90;4.20;;;;;;;15.90;48.66;97541.33;1735401;81;20981;-76
2021/04/06 10:59:01;;;;;;;5.47;4.70;;;;;;;16.02;48.25;97535.36;1753561;81;21582;-76
2021/04/06 11:01:47;;;;;;;4.55;4.10;;;;;;;16.10;48.84;97541.63;1714296;83;21580;-75
2021/04/06 11:04:21;;;;;;;7.17;4.42;;;;;;;16.13;46.03;97534.81;1705057;84;20965;-75
2021/04/06 11:07:02;;;;;;;4.50;4.10;;;;;;;16.11;45.65;97524.25;1756027;81;21192;-76
2021/04/06 11:09:46;;;;;;;5.87;4.25;;;;;;;16.24;45.48;97523.97;1757123;81;20942;-75
2021/04/06 11:12:16;;;;;;;5.87;4.70;;;;;;;16.30;45.02;97523.63;1753026;81;20906;-75
2021/04/06 11:14:46;;;;;;;5.47;4.97;;;;;;;16.06;45.12;97523.14;1750870;81;20965;-75
2021/04/06 11:17:15;;;;;;;5.90;5.00;;;;;;;15.82;45.01;97517.80;1696823;83;21089;-74
2021/04/06 11:19:46;;;;;;;5.22;4.72;;;;;;;15.72;46.18;97514.78;1705189;82;21827;-74
2021/04/06 11:22:18;;;;;;;5.75;4.50;;;;;;;15.66;46.02;97515.57;1724690;82;21509;-75
2021/04/06 11:24:51;;;;;;;4.87;4.40;;;;;;;15.50;45.26;97508.80;1687447;83;21070;-76
2021/04/06 11:27:21;;;;;;;44.85;5.65;;;;;;;15.43;45.38;97507.41;1705552;82;20943;-76
2021/04/06 11:29:55;;;;;;;6.85;4.80;;;;;;;15.50;46.21;97499.97;1730932;82;21100;-76
2021/04/06 11:32:26;;;;;;;17.32;5.08;;;;;;;15.57;46.41;97490.27;1717264;82;21359;-76
2021/04/06 11:34:56;;;;;;;6.37;4.50;;;;;;;15.57;45.25;97488.94;1667822;84;21525;-76
2021/04/06 11:37:27;;;;;;;5.78;4.87;;;;;;;15.52;45.99;97492.78;1697492;83;21507;-76
2021/04/06 11:40:04;;;;;;;6.45;4.60;;;;;;;15.41;46.16;97486.22;1667886;86;21068;-77
2021/04/06 11:42:34;;;;;;;5.45;4.30;;;;;;;15.29;45.63;97477.56;1697410;83;20946;-76
2021/04/06 11:45:07;;;;;;;5.45;4.45;;;;;;;15.27;46.06;97474.59;1667780;84;21384;-76
2021/04/06 11:47:36;;;;;;;5.58;4.67;;;;;;;15.32;46.03;97473.42;1697028;83;21096;-75
2021/04/06 11:50:08;;;;;;;11.40;5.20;;;;;;;15.43;45.61;97449.80;1717204;83;20942;-76
2021/04/06 11:52:38;;;;;;;6.15;4.42;;;;;;;15.40;44.97;97450.44;1686861;85;21169;-77
2021/04/06 11:55:10;;;;;;;6.42;4.25;;;;;;;15.37;45.17;97451.45;1717177;82;21123;-77
2021/04/06 11:57:41;;;;;;;4.42;4.03;;;;;;;15.39;45.83;97450.05;1686727;85;21390;-77
2021/04/06 12:00:13;;;;;;;4.62;4.20;;;;;;;15.40;45.94;97440.67;1717158;82;21112;-76
2021/04/06 12:02:43;;;;;;;6.10;4.40;;;;;;;15.44;45.83;97437.38;1687310;85;21109;-77
2021/04/06 12:05:15;;;;;;;5.58;4.25;;;;;;;15.48;47.37;97438.94;1704162;82;21140;-75